Time;durP1;ratioP1;P1;durP2;ratioP2;P2;SDS_P1;SDS_P2;PMS_P1;PMS_P2;Temp;Humidity;BMP_temperature;BMP_pressure;BME280_temperature;BME280_humidity;BME280_pressure;Samples;Min_cycle;Max_cycle;Signal;HPM_P1;HPM_P2
2021/01/20 00:00:24;;;;;;;17.67;11.48;;;;;;;6.43;90.04;100029.50;5116519;27;20047;-63
2021/01/20 00:02:51;;;;;;;16.55;10.45;;;;;;;6.47;90.07;100014.84;5118103;27;20487;-64
2021/01/20 00:05:17;;;;;;;19.35;11.32;;;;;;;6.48;90.27;100015.72;5113556;27;20055;-63
2021/01/20 00:07:43;;;;;;;15.13;10.90;;;;;;;6.49;90.12;100023.63;5117121;27;20415;-64
2021/01/20 00:10:10;;;;;;;21.27;11.18;;;;;;;6.49;90.40;100017.41;5115966;27;21023;-64
2021/01/20 00:12:36;;;;;;;14.35;9.80;;;;;;;6.52;89.89;100016.31;5116588;27;20055;-63
2021/01/20 00:15:02;;;;;;;14.82;10.32;;;;;;;6.48;90.27;100005.03;5113069;27;20060;-64
2021/01/20 00:17:28;;;;;;;17.10;11.43;;;;;;;6.44;90.07;99987.56;5116453;27;20399;-63
2021/01/20 00:19:55;;;;;;;16.35;10.20;;;;;;;6.43;90.04;99980.50;5116371;27;20048;-64
2021/01/20 02:20:41;;;;;;;19.40;12.40;;;;;;;6.09;90.71;99903.22;5018404;28;20449;-63
2021/01/20 02:23:13;;;;;;;16.63;11.45;;;;;;;6.07;91.39;99890.00;5052787;28;20544;-63
2021/01/20 02:26:01;;;;;;;21.38;12.50;;;;;;;6.08;91.66;99890.84;5058610;28;20048;-63
2021/01/20 02:28:40;;;;;;;20.57;13.80;;;;;;;6.11;91.12;99880.75;5057110;28;20052;-63
2021/01/20 02:31:08;;;;;;;21.05;13.65;;;;;;;6.20;91.31;99894.28;5057760;28;20705;-63
2021/01/20 02:33:36;;;;;;;19.65;12.55;;;;;;;6.19;90.78;99890.78;5031490;28;20048;-64
2021/01/20 02:36:04;;;;;;;22.08;12.80;;;;;;;6.20;90.57;99888.94;5050847;28;20053;-64
2021/01/20 02:38:31;;;;;;;19.27;13.43;;;;;;;6.19;90.84;99893.44;5057587;28;20057;-63
2021/01/20 02:40:57;;;;;;;19.50;12.25;;;;;;;6.16;90.83;99883.03;5061651;28;20049;-64
2021/01/20 02:43:24;;;;;;;21.98;12.93;;;;;;;6.10;91.61;99880.88;5056708;28;20074;-64
2021/01/20 02:45:50;;;;;;;22.55;12.50;;;;;;;6.09;91.85;99865.81;5051378;28;20044;-63
2021/01/20 02:48:18;;;;;;;18.90;13.55;;;;;;;6.10;90.83;99873.69;5050626;28;20045;-64
2021/01/20 02:50:44;;;;;;;19.15;12.15;;;;;;;6.09;91.27;99865.81;5061504;28;20075;-64
2021/01/20 02:53:14;;;;;;;19.95;13.10;;;;;;;6.08;92.16;99858.78;5044085;28;20057;-63
2021/01/20 02:55:43;;;;;;;18.73;12.52;;;;;;;6.11;91.92;99859.38;5048808;28;20056;-64
2021/01/20 02:58:11;;;;;;;;;;;;;;;6.11;91.51;99869.19;5040743;28;20048;-64
2021/01/20 03:00:40;;;;;;;20.35;12.57;;;;;;;6.11;91.69;99853.16;5062002;28;19929;-64
2021/01/20 03:03:09;;;;;;;19.63;12.70;;;;;;;6.09;92.22;99847.13;5049064;28;20057;-65
2021/01/20 03:05:37;;;;;;;19.58;13.60;;;;;;;6.10;92.71;99855.00;5042582;28;20049;-64
2021/01/20 03:08:04;;;;;;;17.95;13.18;;;;;;;6.12;92.15;99854.88;5045858;28;20379;-63
2021/01/20 03:10:30;;;;;;;21.45;12.00;;;;;;;6.11;91.86;99842.47;5045946;28;20048;-64
2021/01/20 03:12:56;;;;;;;17.10;12.38;;;;;;;6.11;91.92;99846.03;5052020;28;20053;-64
2021/01/20 03:15:26;;;;;;;22.00;13.27;;;;;;;6.12;92.34;99850.38;5046686;28;20412;-63
2021/01/20 03:17:52;;;;;;;17.38;11.95;;;;;;;6.11;92.63;99847.81;5061246;28;20045;-64
2021/01/20 03:20:18;;;;;;;22.00;12.05;;;;;;;6.14;92.54;99831.56;5059809;28;20106;-66
2021/01/20 03:22:45;;;;;;;18.83;13.25;;;;;;;6.12;92.02;99842.38;5060640;28;20518;-63
2021/01/20 03:25:12;;;;;;;19.13;12.23;;;;;;;6.08;92.34;99832.06;5059967;28;20525;-64
2021/01/20 03:27:38;;;;;;;22.60;12.52;;;;;;;6.12;92.82;99838.84;5060749;28;20052;-64
2021/01/20 03:32:33;;;;;;;20.98;12.75;;;;;;;6.08;92.95;99837.41;5086436;22;20094;-63
2021/01/20 03:34:59;;;;;;;18.15;11.85;;;;;;;6.11;92.63;99834.47;5097051;28;20507;-63
2021/01/20 03:37:25;;;;;;;17.70;11.32;;;;;;;6.11;92.80;99830.00;5096353;28;20052;-63
2021/01/20 03:39:51;;;;;;;20.13;11.85;;;;;;;6.16;92.46;99834.94;5098861;28;20447;-62
2021/01/20 03:42:17;;;;;;;20.67;11.38;;;;;;;6.12;93.11;99831.69;5093877;28;20404;-65
2021/01/20 03:44:43;;;;;;;18.38;12.63;;;;;;;6.17;93.11;99833.97;5095882;28;20059;-64
2021/01/20 03:47:09;;;;;;;18.67;11.57;;;;;;;6.14;92.46;99827.06;5096063;28;20048;-64
2021/01/20 03:49:35;;;;;;;18.02;11.68;;;;;;;6.12;92.95;99815.66;5095900;28;20492;-64
2021/01/20 03:52:01;;;;;;;21.02;12.68;;;;;;;6.14;93.44;99816.38;5095380;28;20059;-66
2021/01/20 03:54:27;;;;;;;17.30;13.00;;;;;;;6.13;92.84;99809.31;5093526;28;20514;-64
2021/01/20 03:56:54;;;;;;;19.40;13.13;;;;;;;6.19;92.61;99810.63;5095233;28;20044;-64
2021/01/20 03:59:20;;;;;;;18.65;12.90;;;;;;;6.24;92.43;99805.72;5096530;28;20052;-63
2021/01/20 04:01:46;;;;;;;23.42;13.30;;;;;;;6.28;92.87;99806.28;5096264;28;20541;-63
2021/01/20 04:04:12;;;;;;;21.25;12.68;;;;;;;6.34;92.10;99803.06;5093809;28;20044;-63
2021/01/20 04:06:38;;;;;;;17.25;11.65;;;;;;;6.35;92.66;99798.59;5096065;28;20598;-63
2021/01/20 04:09:05;;;;;;;17.50;12.02;;;;;;;6.35;92.12;99806.63;5093205;28;20116;-64
2021/01/20 04:11:31;;;;;;;19.05;11.98;;;;;;;6.44;91.51;99797.78;5096790;28;20056;-63
2021/01/20 04:13:58;;;;;;;17.10;11.18;;;;;;;6.46;91.54;99790.47;5090784;28;20078;-64
2021/01/20 04:16:24;;;;;;;19.63;11.23;;;;;;;6.54;91.92;99790.63;5097131;28;20059;-65
2021/01/20 04:18:50;;;;;;;14.57;10.20;;;;;;;6.55;91.45;99770.94;5095448;28;20040;-64
2021/01/20 04:21:16;;;;;;;15.95;9.95;;;;;;;6.61;91.07;99786.44;5096574;28;20066;-64
2021/01/20 04:23:42;;;;;;;14.73;10.07;;;;;;;6.61;90.97;99778.41;5092360;28;20424;-63
2021/01/20 04:26:09;;;;;;;15.88;10.85;;;;;;;6.55;90.46;99776.28;5096637;28;20101;-64
2021/01/20 04:31:05;;;;;;;15.23;9.77;;;;;;;6.51;90.98;99774.88;5097110;22;20422;-63
2021/01/20 04:33:31;;;;;;;14.90;8.90;;;;;;;6.48;91.06;99783.16;5071310;28;20055;-65
2021/01/20 04:35:58;;;;;;;14.05;9.55;;;;;;;6.45;90.99;99775.41;5076039;28;20045;-65
2021/01/20 04:38:24;;;;;;;17.58;9.07;;;;;;;6.44;90.58;99776.41;5074671;28;20405;-63
2021/01/20 04:40:52;;;;;;;16.13;9.50;;;;;;;6.46;90.61;99771.75;5076121;28;20059;-64
2021/01/20 04:43:18;;;;;;;13.73;9.23;;;;;;;6.47;90.98;99768.09;5073406;28;20055;-64
2021/01/20 04:45:44;;;;;;;15.98;9.75;;;;;;;6.50;90.70;99783.88;5074720;28;20091;-63
2021/01/20 04:48:12;;;;;;;13.15;9.13;;;;;;;6.47;90.50;99752.06;5074864;28;20075;-63
2021/01/20 04:50:41;;;;;;;13.20;9.07;;;;;;;6.51;90.21;99760.63;5076389;28;20421;-64
2021/01/20 04:53:09;;;;;;;13.52;9.00;;;;;;;6.53;90.03;99759.53;5072698;28;20051;-63
2021/01/20 04:55:38;;;;;;;11.55;8.77;;;;;;;6.50;89.90;99749.13;5076059;28;20048;-64
2021/01/20 04:58:05;;;;;;;11.57;8.23;;;;;;;6.56;89.50;99740.53;5076255;28;20052;-65
2021/01/20 05:00:31;;;;;;;13.80;8.02;;;;;;;6.53;89.95;99746.16;5076605;28;20051;-64
2021/01/20 05:02:58;;;;;;;16.35;8.38;;;;;;;6.66;89.25;99740.56;5075544;28;20405;-63
2021/01/20 05:05:26;;;;;;;13.98;7.28;;;;;;;6.67;89.10;99744.94;5074979;28;20125;-63
2021/01/20 05:07:52;;;;;;;11.20;7.85;;;;;;;6.65;89.24;99745.06;5075163;28;20056;-64
2021/01/20 05:10:18;;;;;;;12.35;7.80;;;;;;;6.71;89.16;99742.81;5075514;28;20546;-63
2021/01/20 05:15:47;;;;;;;15.90;8.68;;;;;;;6.72;88.77;99731.16;5097810;22;20040;-63
2021/01/20 05:18:13;;;;;;;14.48;7.32;;;;;;;6.69;89.30;99731.44;5097182;28;20047;-64
2021/01/20 05:20:40;;;;;;;15.90;8.80;;;;;;;6.66;88.91;99720.00;5097868;28;20062;-64
2021/01/20 05:23:08;;;;;;;12.40;7.90;;;;;;;6.72;88.56;99723.13;5097003;28;20064;-64
2021/01/20 05:25:36;;;;;;;12.10;7.75;;;;;;;6.75;88.51;99725.53;5098170;28;20044;-64
2021/01/20 05:28:15;;;;;;;12.02;8.95;;;;;;;6.72;89.16;99718.63;5096779;28;20048;-63
2021/01/20 05:30:45;;;;;;;11.18;7.68;;;;;;;6.75;88.08;99712.97;5096608;28;20044;-64
2021/01/20 05:33:14;;;;;;;12.00;7.93;;;;;;;6.75;88.56;99706.81;5096786;28;20052;-63
2021/01/20 05:35:41;;;;;;;12.10;7.35;;;;;;;6.79;88.04;99714.41;5097964;28;20452;-63
2021/01/20 05:38:07;;;;;;;13.82;7.47;;;;;;;6.77;88.37;99699.47;5097290;28;20121;-63
2021/01/20 05:40:34;;;;;;;10.10;7.05;;;;;;;6.78;88.74;99714.53;5097051;28;20052;-64
2021/01/20 05:43:00;;;;;;;11.77;7.85;;;;;;;6.78;88.37;99702.00;5097727;28;20047;-64
2021/01/20 05:45:26;;;;;;;11.65;8.38;;;;;;;6.82;88.43;99697.22;5097105;28;20091;-64
2021/01/20 05:48:07;;;;;;;14.02;8.02;;;;;;;6.89;88.14;99685.00;5097449;28;20074;-64
2021/01/20 05:50:33;;;;;;;9.95;7.47;;;;;;;6.90;88.44;99689.34;5096671;28;20597;-63
2021/01/20 05:53:08;;;;;;;13.60;8.10;;;;;;;6.91;87.96;99690.19;5095904;28;20497;-64
2021/01/20 05:55:35;;;;;;;13.90;7.93;;;;;;;6.93;87.75;99682.84;5097392;28;20036;-62
2021/01/20 05:58:02;;;;;;;11.23;7.28;;;;;;;6.94;87.79;99668.50;5100327;28;20389;-63
2021/01/20 06:00:28;;;;;;;12.13;7.40;;;;;;;6.94;87.42;99681.88;5099915;28;20091;-63
2021/01/20 06:02:55;;;;;;;9.98;7.03;;;;;;;6.94;87.87;99682.72;5098356;28;20055;-64
2021/01/20 06:05:22;;;;;;;12.95;8.13;;;;;;;6.98;86.80;99676.09;5100262;28;20059;-63
2021/01/20 06:07:49;;;;;;;11.63;6.78;;;;;;;6.97;87.67;99676.25;5099864;28;20048;-62
2021/01/20 06:10:16;;;;;;;10.05;6.63;;;;;;;7.00;86.71;99676.78;5098804;28;20093;-65
2021/01/20 06:12:42;;;;;;;11.00;7.07;;;;;;;6.98;87.57;99669.91;5100794;28;20121;-63
2021/01/20 06:15:09;;;;;;;11.70;7.30;;;;;;;6.97;87.13;99669.06;5098836;28;20060;-63
2021/01/20 06:17:37;;;;;;;9.80;6.78;;;;;;;7.03;87.02;99656.13;5101374;28;20048;-64
2021/01/20 06:20:06;;;;;;;10.60;6.20;;;;;;;7.00;87.44;99658.06;5100587;28;20040;-63
2021/01/20 06:22:35;;;;;;;12.35;7.28;;;;;;;6.96;87.10;99662.03;5100455;28;20059;-63
2021/01/20 06:25:07;;;;;;;11.75;6.15;;;;;;;7.04;86.71;99668.47;5100177;28;20048;-63
2021/01/20 06:27:41;;;;;;;8.85;6.28;;;;;;;7.12;86.90;99663.28;5100247;28;20503;-64
2021/01/20 06:30:11;;;;;;;10.18;6.00;;;;;;;7.08;86.85;99661.88;5099879;28;20059;-64
2021/01/20 06:32:41;;;;;;;9.63;6.18;;;;;;;7.09;86.31;99664.41;5099743;28;20047;-64
2021/01/20 06:35:08;;;;;;;8.98;5.85;;;;;;;7.11;86.50;99664.25;5098288;28;20115;-62
2021/01/20 06:37:39;;;;;;;10.10;5.80;;;;;;;7.13;86.29;99667.66;5100570;28;20085;-62
2021/01/20 06:40:37;;;;;;;9.75;6.30;;;;;;;7.18;86.18;99668.03;5099539;28;20489;-63
2021/01/20 06:43:45;;;;;;;10.48;6.75;;;;;;;7.17;86.63;99661.03;5097881;28;20059;-62
2021/01/20 06:46:15;;;;;;;12.75;6.22;;;;;;;7.16;85.86;99664.69;5082958;28;20100;-62
2021/01/20 06:49:07;;;;;;;8.05;6.15;;;;;;;7.19;86.11;99662.53;5098962;28;20102;-62
2021/01/20 06:51:33;;;;;;;9.27;6.18;;;;;;;7.21;86.10;99665.06;5100340;28;20524;-62
2021/01/20 06:54:11;;;;;;;7.90;5.65;;;;;;;7.22;85.87;99661.41;5096146;28;20054;-64
2021/01/20 06:56:38;;;;;;;9.75;6.10;;;;;;;7.19;85.79;99661.72;5100855;28;20043;-63
2021/01/20 06:59:25;;;;;;;11.05;6.03;;;;;;;7.18;86.34;99655.53;5096870;28;20064;-63
2021/01/20 07:02:10;;;;;;;8.52;5.78;;;;;;;7.22;85.51;99666.78;5099806;28;20051;-62
2021/01/20 07:05:04;;;;;;;13.32;5.78;;;;;;;7.26;86.18;99662.81;5098448;28;20123;-63
2021/01/20 07:08:00;;;;;;;9.52;5.72;;;;;;;7.22;85.54;99660.59;5099781;28;20091;-64
2021/01/20 07:10:31;;;;;;;7.75;5.93;;;;;;;7.26;85.38;99657.47;5098886;28;20043;-63
2021/01/20 07:13:20;;;;;;;9.90;5.70;;;;;;;7.28;86.02;99665.34;5100292;28;20060;-63
2021/01/20 07:15:49;;;;;;;8.43;5.25;;;;;;;7.31;85.35;99655.19;5098419;28;20120;-63
2021/01/20 07:18:16;;;;;;;;;;;;;;;7.28;85.60;99666.19;5100446;28;20040;-63
2021/01/20 07:20:43;;;;;;;7.40;5.72;;;;;;;7.26;86.23;99665.50;5046901;22;19966;-63
2021/01/20 07:23:10;;;;;;;6.65;4.78;;;;;;;7.32;85.99;99672.13;5032580;28;20049;-63
2021/01/20 07:25:36;;;;;;;7.55;4.97;;;;;;;7.32;86.10;99664.09;4925706;28;20072;-64
2021/01/20 07:28:02;;;;;;;9.45;5.75;;;;;;;7.31;86.09;99665.91;4919169;28;20476;-65
2021/01/20 07:30:29;;;;;;;7.57;5.90;;;;;;;7.32;85.78;99659.56;4933150;28;20132;-63
2021/01/20 07:32:56;;;;;;;7.15;5.72;;;;;;;7.27;86.37;99659.16;4931124;28;20430;-63
2021/01/20 07:35:25;;;;;;;6.78;4.93;;;;;;;7.32;86.07;99658.72;4928862;28;20426;-63
2021/01/20 07:38:00;;;;;;;7.03;4.87;;;;;;;7.34;85.94;99657.56;4933395;28;20525;-64
2021/01/20 07:40:28;;;;;;;8.25;5.13;;;;;;;7.32;86.51;99651.53;4924868;28;20071;-64
2021/01/20 07:42:54;;;;;;;7.90;5.05;;;;;;;7.35;86.19;99645.88;4905374;28;20054;-63
2021/01/20 07:45:29;;;;;;;7.47;5.18;;;;;;;7.38;86.12;99647.44;4928277;28;20524;-65
2021/01/20 07:47:56;;;;;;;8.30;5.22;;;;;;;7.43;85.60;99653.19;4921949;28;20053;-63
2021/01/20 07:50:35;;;;;;;7.50;4.82;;;;;;;7.43;86.43;99652.34;4915418;28;26013;-62
2021/01/20 07:53:01;;;;;;;8.43;5.32;;;;;;;7.42;85.95;99656.00;4915401;28;20141;-63
2021/01/20 07:55:27;;;;;;;6.95;4.55;;;;;;;7.49;86.48;99659.81;4902646;28;20247;-64
2021/01/20 07:57:56;;;;;;;6.78;4.97;;;;;;;7.48;86.19;99647.38;4907925;28;20080;-63
2021/01/20 08:00:22;;;;;;;7.43;5.57;;;;;;;7.41;86.04;99640.97;4900255;28;20139;-64
2021/01/20 08:02:48;;;;;;;7.32;5.32;;;;;;;7.48;86.04;99653.63;4917649;28;20140;-63
2021/01/20 08:05:15;;;;;;;8.02;5.03;;;;;;;7.47;85.87;99649.25;4922746;28;20061;-64
2021/01/20 08:07:41;;;;;;;8.73;5.25;;;;;;;7.46;86.60;99649.38;4905602;28;20663;-63
2021/01/20 08:10:18;;;;;;;8.27;5.63;;;;;;;7.42;87.27;99642.63;4917324;28;20162;-63
2021/01/20 08:12:44;;;;;;;9.15;5.60;;;;;;;7.44;87.19;99643.34;4917070;28;20218;-63
2021/01/20 08:15:12;;;;;;;7.20;5.70;;;;;;;7.51;86.81;99649.81;4914700;28;20053;-64
2021/01/20 08:17:38;;;;;;;6.18;5.35;;;;;;;7.44;87.59;99648.69;4923026;28;20067;-63
2021/01/20 08:20:06;;;;;;;8.68;6.15;;;;;;;7.45;87.66;99639.66;4911201;28;20053;-64
2021/01/20 08:22:33;;;;;;;6.00;5.30;;;;;;;7.48;87.92;99644.72;4913530;28;20147;-63
2021/01/20 08:24:59;;;;;;;8.60;5.70;;;;;;;7.51;87.15;99634.56;4926280;28;20475;-63
2021/01/20 08:27:26;;;;;;;6.70;5.15;;;;;;;7.46;87.19;99646.72;4924789;28;20106;-64
2021/01/20 08:29:54;;;;;;;6.30;5.43;;;;;;;7.44;87.73;99643.34;4923540;28;20415;-63
2021/01/20 08:32:21;;;;;;;7.75;5.43;;;;;;;7.47;87.27;99643.88;4921700;28;20171;-64
2021/01/20 08:34:49;;;;;;;6.55;5.38;;;;;;;7.47;87.86;99648.41;4931086;28;20053;-64
2021/01/20 08:37:18;;;;;;;7.53;5.60;;;;;;;7.47;87.95;99643.06;4933484;28;22406;-63
2021/01/20 08:39:54;;;;;;;7.78;5.00;;;;;;;7.51;87.50;99647.13;4922296;28;20053;-64
2021/01/20 08:42:26;;;;;;;7.80;5.63;;;;;;;7.49;87.81;99633.03;4924014;28;20147;-63
2021/01/20 08:45:04;;;;;;;7.38;5.80;;;;;;;7.52;87.62;99640.75;4918723;28;20065;-63
2021/01/20 08:47:30;;;;;;;8.18;5.40;;;;;;;7.55;88.49;99635.09;4917449;28;20143;-62
2021/01/20 08:49:56;;;;;;;6.50;4.78;;;;;;;7.58;87.53;99639.34;4917975;28;20215;-64
2021/01/20 08:52:23;;;;;;;7.28;5.35;;;;;;;7.58;87.63;99642.84;4920666;28;20049;-64
2021/01/20 08:54:49;;;;;;;8.00;5.07;;;;;;;7.63;87.46;99647.78;4915150;28;20134;-63
2021/01/20 08:57:17;;;;;;;6.13;4.97;;;;;;;7.60;87.52;99648.91;4931944;28;20253;-65
2021/01/20 09:02:24;;;;;;;10.82;5.18;;;;;;;7.68;87.72;99642.81;4948861;22;20500;-64
2021/01/20 09:04:51;;;;;;;7.93;4.82;;;;;;;7.70;87.45;99643.53;4959115;28;21202;-64
2021/01/20 09:07:17;;;;;;;6.53;5.00;;;;;;;7.72;87.57;99657.59;4958030;28;20056;-65
2021/01/20 09:09:43;;;;;;;7.07;4.68;;;;;;;7.69;86.77;99650.72;4960295;28;20095;-64
2021/01/20 09:12:11;;;;;;;7.07;4.68;;;;;;;7.71;87.61;99645.19;4962623;28;20186;-65
2021/01/20 09:14:39;;;;;;;6.90;4.65;;;;;;;7.73;87.03;99648.59;4958694;28;20138;-64
2021/01/20 09:17:06;;;;;;;7.88;4.50;;;;;;;7.68;87.52;99651.69;4963225;28;20596;-65
2021/01/20 09:19:32;;;;;;;4.78;3.90;;;;;;;7.71;86.89;99647.88;4961421;28;21438;-64
2021/01/20 09:21:59;;;;;;;4.93;3.88;;;;;;;7.69;86.84;99656.06;4962296;28;20052;-64
2021/01/20 09:24:25;;;;;;;7.53;3.75;;;;;;;7.70;87.24;99640.84;4959551;28;20056;-65
2021/01/20 09:26:51;;;;;;;7.32;4.05;;;;;;;7.73;87.29;99648.59;4962179;28;20462;-62
2021/01/20 09:29:17;;;;;;;7.20;4.25;;;;;;;7.72;86.61;99644.22;4959591;28;21159;-62
2021/01/20 09:31:44;;;;;;;6.05;3.88;;;;;;;7.70;86.57;99646.22;4958651;28;20454;-62
2021/01/20 09:34:10;;;;;;;4.80;3.83;;;;;;;7.71;86.34;99634.47;4965327;28;20131;-62
2021/01/20 09:36:36;;;;;;;5.47;3.55;;;;;;;7.76;87.15;99642.06;4982042;28;20162;-63
2021/01/20 09:39:03;;;;;;;10.13;3.80;;;;;;;7.78;86.82;99635.59;4979685;28;20249;-62
2021/01/20 09:41:29;;;;;;;5.07;3.65;;;;;;;7.78;86.24;99634.75;4981437;28;20075;-63
2021/01/20 09:43:56;;;;;;;6.75;3.40;;;;;;;7.71;86.52;99632.66;4965953;28;20553;-62
2021/01/20 09:46:22;;;;;;;6.18;3.63;;;;;;;7.72;86.50;99641.53;4962379;28;20916;-63
2021/01/20 09:48:49;;;;;;;5.32;3.30;;;;;;;7.75;86.00;99625.16;4956970;28;20625;-63
2021/01/20 09:51:15;;;;;;;10.32;3.90;;;;;;;7.74;86.41;99628.00;4957890;28;20056;-64
2021/01/20 09:53:41;;;;;;;6.43;3.15;;;;;;;7.77;86.21;99633.88;4959912;28;20613;-63
2021/01/20 09:56:07;;;;;;;5.05;3.53;;;;;;;7.77;86.25;99620.50;4955536;28;20502;-63
2021/01/20 09:58:37;;;;;;;4.82;2.78;;;;;;;7.78;86.29;99634.75;4952624;28;20060;-64
2021/01/20 10:01:03;;;;;;;5.93;3.50;;;;;;;7.82;85.98;99631.63;4954664;28;20689;-64
2021/01/20 10:03:29;;;;;;;5.28;3.60;;;;;;;7.81;86.03;99621.06;4965036;28;20333;-64
2021/01/20 10:05:56;;;;;;;5.22;3.10;;;;;;;7.82;86.14;99625.44;4966588;28;20518;-63
2021/01/20 10:08:22;;;;;;;4.55;2.75;;;;;;;7.88;85.95;99624.84;4954025;28;20121;-63
2021/01/20 10:10:48;;;;;;;4.63;3.28;;;;;;;7.93;85.35;99624.38;4956533;28;20147;-64
2021/01/20 10:13:14;;;;;;;5.00;3.20;;;;;;;7.87;85.16;99623.13;4955289;28;25691;-63
2021/01/20 10:15:40;;;;;;;6.45;3.03;;;;;;;7.88;84.88;99624.84;4955116;28;20063;-63
2021/01/20 10:18:07;;;;;;;8.27;3.40;;;;;;;7.89;84.70;99613.97;4952025;28;20103;-63
2021/01/20 10:20:33;;;;;;;4.72;2.63;;;;;;;7.93;84.44;99617.19;4956502;28;20821;-63
2021/01/20 10:23:00;;;;;;;5.68;3.20;;;;;;;7.92;84.35;99618.19;4963864;28;26126;-63
2021/01/20 10:25:32;;;;;;;7.43;2.50;;;;;;;7.98;83.79;99620.25;4954912;28;20757;-63
2021/01/20 10:27:59;;;;;;;5.75;2.90;;;;;;;8.07;82.47;99597.09;4956900;28;20491;-62
2021/01/20 10:30:26;;;;;;;5.03;2.60;;;;;;;8.09;82.70;99602.28;4959848;28;20860;-63
2021/01/20 10:32:51;;;;;;;4.72;2.80;;;;;;;8.17;82.65;99597.88;4960436;28;20067;-62
2021/01/20 10:35:19;;;;;;;4.13;3.03;;;;;;;8.11;82.33;99598.44;4960143;28;20749;-62
2021/01/20 10:37:45;;;;;;;6.07;3.13;;;;;;;8.16;82.77;99600.69;4957407;28;20056;-63
2021/01/20 10:40:13;;;;;;;7.40;2.55;;;;;;;8.20;82.19;99584.16;4975962;28;20087;-63
2021/01/20 10:42:40;;;;;;;4.67;2.40;;;;;;;8.28;81.06;99580.69;4975813;28;26159;-61
2021/01/20 10:45:06;;;;;;;3.40;2.55;;;;;;;8.32;80.57;99574.03;4972740;28;20179;-64
2021/01/20 10:47:33;;;;;;;4.85;2.28;;;;;;;8.41;79.74;99572.28;4974368;28;20155;-66
2021/01/20 10:49:59;;;;;;;3.45;2.38;;;;;;;8.46;79.27;99563.81;4976041;28;20147;-64
2021/01/20 10:52:25;;;;;;;4.22;2.78;;;;;;;8.47;78.33;99571.69;4971588;28;20057;-64
2021/01/20 10:54:51;;;;;;;4.45;2.35;;;;;;;8.48;78.31;99577.88;4972346;28;20056;-63
2021/01/20 10:57:18;;;;;;;3.67;2.20;;;;;;;8.51;77.98;99577.56;4970496;28;20545;-64
2021/01/20 10:59:44;;;;;;;4.80;2.13;;;;;;;8.48;77.45;99561.81;4971206;28;20048;-64
2021/01/20 11:02:10;;;;;;;3.20;1.95;;;;;;;8.36;77.40;99575.44;4976342;28;20061;-64
2021/01/20 11:04:36;;;;;;;4.10;2.60;;;;;;;8.31;76.97;99567.00;4972598;28;20980;-63
2021/01/20 11:07:02;;;;;;;3.83;2.53;;;;;;;8.32;76.24;99562.47;4961267;28;20056;-63
2021/01/20 11:09:30;;;;;;;3.90;2.70;;;;;;;8.35;75.62;99552.28;4954544;28;20508;-63
2021/01/20 11:11:56;;;;;;;3.53;2.40;;;;;;;8.40;75.09;99544.59;4959578;28;20063;-63
2021/01/20 11:14:23;;;;;;;4.72;2.35;;;;;;;8.40;75.01;99547.28;4969790;28;20604;-63
2021/01/20 11:16:51;;;;;;;4.22;2.38;;;;;;;8.44;75.08;99538.97;4956237;28;20056;-62
2021/01/20 11:19:17;;;;;;;4.47;2.70;;;;;;;8.45;73.61;99537.97;4956356;28;20107;-64
2021/01/20 11:21:43;;;;;;;3.65;2.35;;;;;;;8.48;74.90;99533.16;4977373;28;20516;-64
2021/01/20 11:24:09;;;;;;;5.65;2.53;;;;;;;8.55;73.46;99526.19;4978853;28;20080;-63
2021/01/20 11:26:35;;;;;;;4.80;2.60;;;;;;;8.58;73.67;99520.50;4980633;28;20508;-64
2021/01/20 11:29:01;;;;;;;3.75;2.25;;;;;;;8.64;73.35;99531.59;4976695;28;20064;-64
2021/01/20 11:31:28;;;;;;;3.65;2.40;;;;;;;8.67;73.20;99529.47;4974842;28;20161;-63
2021/01/20 11:33:56;;;;;;;4.05;2.10;;;;;;;8.69;74.61;99515.88;4976926;28;20106;-64
2021/01/20 11:36:22;;;;;;;3.75;2.28;;;;;;;8.77;73.82;99535.56;4970153;28;20064;-63
2021/01/20 11:38:48;;;;;;;3.63;2.35;;;;;;;8.80;73.64;99517.47;4954657;28;20705;-65
2021/01/20 11:41:14;;;;;;;6.00;2.60;;;;;;;8.85;73.24;99494.53;4954595;28;20641;-64
2021/01/20 11:43:41;;;;;;;5.07;2.10;;;;;;;8.90;72.12;99510.97;4953288;28;20689;-64
2021/01/20 11:46:06;;;;;;;4.40;2.25;;;;;;;8.93;71.18;99505.28;4946510;28;20979;-64
2021/01/20 11:48:33;;;;;;;6.32;2.50;;;;;;;9.03;71.02;99513.25;4947360;28;20801;-65
2021/01/20 11:50:59;;;;;;;3.88;2.25;;;;;;;9.04;70.87;99508.69;4945296;28;20675;-63
2021/01/20 11:53:25;;;;;;;4.18;2.10;;;;;;;9.01;70.64;99509.88;4949425;28;20052;-64
2021/01/20 11:55:52;;;;;;;3.60;2.22;;;;;;;8.96;71.16;99506.81;4951872;28;20179;-63
2021/01/20 11:58:18;;;;;;;5.30;2.47;;;;;;;8.85;70.90;99509.75;4952951;28;20060;-64
2021/01/20 12:00:44;;;;;;;6.32;2.28;;;;;;;8.94;70.59;99500.78;4953688;28;20052;-63
2021/01/20 12:03:10;;;;;;;3.50;2.22;;;;;;;8.93;69.87;99491.03;4948508;28;20111;-64
2021/01/20 12:05:37;;;;;;;5.47;2.40;;;;;;;9.00;68.89;99489.41;4944097;28;20504;-63
2021/01/20 12:08:03;;;;;;;6.97;2.53;;;;;;;9.02;69.24;99473.16;4950244;28;20055;-64
2021/01/20 12:10:29;;;;;;;3.30;2.10;;;;;;;9.01;68.24;99476.81;4952972;28;20132;-63
2021/01/20 12:12:55;;;;;;;3.60;2.22;;;;;;;9.09;68.01;99475.03;4949071;28;20152;-64
2021/01/20 12:15:21;;;;;;;5.47;2.33;;;;;;;9.10;67.51;99490.13;4953657;28;23166;-63
2021/01/20 12:17:47;;;;;;;4.55;2.60;;;;;;;9.04;67.82;99484.53;4952547;28;20087;-65
2021/01/20 12:20:14;;;;;;;4.60;2.20;;;;;;;9.00;68.65;99464.41;4947065;28;20048;-64
2021/01/20 12:22:41;;;;;;;3.85;2.13;;;;;;;9.20;67.43;99465.84;4947701;28;20118;-63
2021/01/20 12:25:08;;;;;;;5.60;2.40;;;;;;;9.31;67.66;99450.47;4949324;28;20110;-64
2021/01/20 12:27:37;;;;;;;4.30;2.20;;;;;;;9.30;67.63;99463.03;4953590;28;20810;-62
2021/01/20 12:30:04;;;;;;;3.47;2.10;;;;;;;9.31;68.45;99459.34;4950354;28;20056;-65
2021/01/20 12:32:30;;;;;;;3.80;2.47;;;;;;;9.31;67.42;99451.28;4948633;28;20567;-64
2021/01/20 12:34:56;;;;;;;6.57;2.33;;;;;;;9.26;67.81;99442.88;4967615;28;20056;-64
2021/01/20 12:37:22;;;;;;;3.63;2.10;;;;;;;9.22;67.63;99441.53;4951400;28;20634;-64
2021/01/20 12:39:49;;;;;;;6.20;2.30;;;;;;;9.20;68.00;99449.75;4950583;28;20512;-65
2021/01/20 12:42:15;;;;;;;3.85;2.00;;;;;;;9.09;68.66;99440.13;4946248;28;21722;-63
2021/01/20 12:44:41;;;;;;;4.97;2.10;;;;;;;9.08;68.79;99448.34;4964846;28;20052;-63
2021/01/20 12:47:07;;;;;;;4.53;2.58;;;;;;;9.08;68.39;99438.47;4966324;28;20098;-63
2021/01/20 12:49:33;;;;;;;6.93;2.20;;;;;;;9.01;69.36;99445.47;4965849;28;20169;-64
2021/01/20 12:51:59;;;;;;;6.53;2.42;;;;;;;8.93;68.68;99440.88;4947222;28;20501;-64
2021/01/20 12:54:25;;;;;;;4.55;2.15;;;;;;;8.91;69.05;99425.97;4952314;28;20839;-63
2021/01/20 12:56:52;;;;;;;8.35;2.50;;;;;;;8.89;69.15;99446.75;4971851;28;20651;-62
2021/01/20 12:59:18;;;;;;;3.05;1.95;;;;;;;8.99;68.36;99439.41;4970178;28;20059;-62
2021/01/20 13:01:44;;;;;;;5.82;2.13;;;;;;;8.93;68.93;99437.38;4961310;28;20056;-63
2021/01/20 13:04:10;;;;;;;2.55;1.85;;;;;;;8.93;69.32;99407.84;4953339;28;20047;-63
2021/01/20 13:06:35;;;;;;;2.80;1.88;;;;;;;8.84;69.63;99424.94;4958149;28;20053;-63
2021/01/20 13:09:01;;;;;;;3.25;1.90;;;;;;;8.84;69.80;99430.28;4959022;28;20059;-63
2021/01/20 13:11:27;;;;;;;3.28;2.00;;;;;;;8.81;70.12;99427.94;4971505;28;20071;-63
2021/01/20 13:13:54;;;;;;;4.65;2.20;;;;;;;8.79;69.54;99419.19;4975798;28;20079;-62
2021/01/20 13:16:20;;;;;;;3.20;2.00;;;;;;;8.80;70.36;99407.47;4974476;28;20059;-63
2021/01/20 13:18:46;;;;;;;3.65;2.00;;;;;;;8.82;70.31;99414.34;4955807;28;20059;-64
2021/01/20 13:21:13;;;;;;;5.47;2.10;;;;;;;8.88;69.49;99396.78;4952912;28;20056;-62
2021/01/20 13:23:39;;;;;;;4.28;2.28;;;;;;;8.93;69.36;99389.06;4946973;28;20188;-63
2021/01/20 13:26:05;;;;;;;3.97;2.25;;;;;;;8.94;69.29;99380.03;4950087;28;20060;-62
2021/01/20 13:28:31;;;;;;;6.28;2.40;;;;;;;8.93;69.75;99378.34;4967046;28;20047;-62
2021/01/20 13:30:58;;;;;;;5.15;2.72;;;;;;;8.94;69.00;99363.94;4958847;28;20102;-64
2021/01/20 13:33:24;;;;;;;3.47;2.03;;;;;;;8.95;70.08;99362.91;4955774;28;21086;-63
2021/01/20 13:35:51;;;;;;;4.55;2.25;;;;;;;8.89;69.98;99352.81;4966778;28;20490;-63
2021/01/20 13:38:17;;;;;;;6.78;2.72;;;;;;;8.81;70.12;99355.50;4977720;28;20064;-63
2021/01/20 13:40:42;;;;;;;6.57;2.80;;;;;;;8.77;70.77;99350.47;4977764;28;20064;-62
2021/01/20 13:43:09;;;;;;;5.00;2.63;;;;;;;8.79;70.23;99352.97;4969624;28;20052;-63
2021/01/20 13:45:34;;;;;;;4.00;2.40;;;;;;;8.75;69.92;99343.56;4953911;28;20174;-62
2021/01/20 13:48:01;;;;;;;4.40;2.47;;;;;;;8.72;69.72;99344.72;4954783;28;20044;-63